Time;durP1;ratioP1;P1;durP2;ratioP2;P2;SDS_P1;SDS_P2;PMS_P1;PMS_P2;Temp;Humidity;BMP_temperature;BMP_pressure;BME280_temperature;BME280_humidity;BME280_pressure;Samples;Min_cycle;Max_cycle;Signal;HPM_P1;HPM_P2
2023/08/10 00:00:53;;;;;;;4.03;2.63;;;;;;;;;;5064329;28;20166;-82
2023/08/10 00:03:19;;;;;;;6.55;2.70;;;;;;;;;;5065086;28;20044;-83
2023/08/10 00:05:44;;;;;;;3.85;2.78;;;;;;;;;;5063634;28;20504;-83
2023/08/10 00:08:10;;;;;;;4.18;2.83;;;;;;;;;;5062821;28;20059;-81
2023/08/10 00:10:37;;;;;;;4.22;3.00;;;;;;;;;;5059964;28;20029;-82
2023/08/10 00:13:02;;;;;;;4.82;2.63;;;;;;;;;;5063864;28;20631;-82
2023/08/10 00:15:29;;;;;;;4.18;2.40;;;;;;;;;;5062289;28;20040;-81
2023/08/10 00:17:55;;;;;;;3.53;2.60;;;;;;;;;;5059383;28;20036;-82
2023/08/10 00:20:21;;;;;;;3.53;2.90;;;;;;;;;;5060912;28;20025;-82
2023/08/10 00:22:46;;;;;;;4.55;2.50;;;;;;;;;;5061919;28;20558;-82
2023/08/10 00:25:12;;;;;;;3.25;2.40;;;;;;;;;;5061041;28;20093;-84
2023/08/10 00:27:40;;;;;;;2.90;2.47;;;;;;;;;;5061909;28;20033;-82
2023/08/10 00:30:09;;;;;;;3.97;2.67;;;;;;;;;;5060130;28;20045;-83
2023/08/10 00:32:35;;;;;;;7.80;2.50;;;;;;;;;;5057495;28;20480;-82
2023/08/10 00:35:01;;;;;;;3.40;2.50;;;;;;;;;;5039814;28;20028;-82
2023/08/10 00:37:28;;;;;;;4.75;2.72;;;;;;;;;;5058928;28;20523;-83
2023/08/10 00:39:53;;;;;;;3.88;2.80;;;;;;;;;;5057792;28;20041;-82
2023/08/10 00:42:19;;;;;;;3.70;2.70;;;;;;;;;;5059052;28;20082;-82
2023/08/10 00:44:44;;;;;;;4.32;2.95;;;;;;;;;;5057904;28;20104;-82
2023/08/10 00:47:10;;;;;;;3.50;2.70;;;;;;;;;;5059242;28;20037;-82
2023/08/10 00:49:36;;;;;;;4.07;2.70;;;;;;;;;;5064806;28;20045;-83
2023/08/10 00:52:03;;;;;;;3.53;2.50;;;;;;;;;;5058803;28;20036;-82
2023/08/10 00:54:28;;;;;;;3.40;2.63;;;;;;;;;;5054193;28;20033;-83
2023/08/10 00:56:54;;;;;;;3.33;2.55;;;;;;;;;;5060906;28;20044;-83
2023/08/10 00:59:20;;;;;;;3.63;2.58;;;;;;;;;;5063545;28;20036;-83
2023/08/10 01:01:45;;;;;;;3.90;2.60;;;;;;;;;;5065051;28;20060;-83
2023/08/10 01:04:13;;;;;;;4.53;2.58;;;;;;;;;;5064719;28;20041;-83
2023/08/10 01:07:15;;;;;;;4.15;2.60;;;;;;;;;;5065408;28;20025;-83
2023/08/10 01:10:04;;;;;;;3.58;2.17;;;;;;;;;;5064706;28;20063;-84
2023/08/10 01:13:10;;;;;;;4.82;2.63;;;;;;;;;;5065004;28;20437;-84
2023/08/10 01:15:47;;;;;;;3.22;2.72;;;;;;;;;;5063885;28;20454;-84
2023/08/10 01:18:18;;;;;;;3.80;2.83;;;;;;;;;;5066780;28;20059;-85
2023/08/10 01:20:47;;;;;;;4.82;2.70;;;;;;;;;;5067535;28;20033;-84
2023/08/10 01:23:25;;;;;;;3.40;2.75;;;;;;;;;;5069474;28;20097;-83
2023/08/10 01:25:52;;;;;;;3.70;2.70;;;;;;;;;;5063904;28;20135;-84
2023/08/10 01:28:17;;;;;;;4.07;3.05;;;;;;;;;;5064109;28;20032;-83
2023/08/10 01:30:44;;;;;;;3.95;2.80;;;;;;;;;;5058854;28;20125;-82
2023/08/10 01:33:10;;;;;;;3.20;2.63;;;;;;;;;;5068491;28;20800;-84
2023/08/10 01:35:36;;;;;;;5.18;2.58;;;;;;;;;;5063889;28;20040;-83
2023/08/10 01:38:03;;;;;;;5.63;3.00;;;;;;;;;;5073027;28;20131;-83
2023/08/10 01:40:29;;;;;;;3.55;2.67;;;;;;;;;;5062915;28;20114;-82
2023/08/10 01:42:54;;;;;;;4.95;2.83;;;;;;;;;;5059012;28;20477;-83
2023/08/10 01:45:21;;;;;;;3.60;2.78;;;;;;;;;;5059574;28;20116;-82
2023/08/10 01:47:54;;;;;;;3.25;2.60;;;;;;;;;;5064348;28;20068;-82
2023/08/10 01:50:22;;;;;;;3.63;2.58;;;;;;;;;;5031037;28;20393;-83
2023/08/10 01:52:55;;;;;;;3.70;2.38;;;;;;;;;;5056601;28;20044;-83
2023/08/10 01:55:20;;;;;;;4.13;2.80;;;;;;;;;;5062251;28;20037;-82
2023/08/10 01:57:47;;;;;;;3.25;2.50;;;;;;;;;;5039732;28;20414;-83
2023/08/10 02:00:13;;;;;;;4.35;2.80;;;;;;;;;;5054862;28;20041;-83
2023/08/10 02:02:41;;;;;;;3.72;3.22;;;;;;;;;;5054086;28;20041;-82
2023/08/10 02:05:11;;;;;;;3.83;3.00;;;;;;;;;;5054630;28;20033;-82
2023/08/10 02:07:37;;;;;;;3.63;2.90;;;;;;;;;;5051598;28;20037;-82
2023/08/10 02:10:03;;;;;;;4.68;2.90;;;;;;;;;;5054215;28;20033;-81
2023/08/10 02:12:29;;;;;;;3.45;2.63;;;;;;;;;;5055617;28;20108;-82
2023/08/10 02:14:58;;;;;;;3.38;2.70;;;;;;;;;;5060382;28;20064;-82
2023/08/10 02:17:26;;;;;;;3.85;2.58;;;;;;;;;;5039586;28;20056;-83
2023/08/10 02:19:51;;;;;;;2.80;2.20;;;;;;;;;;5058970;28;20029;-82
2023/08/10 02:22:17;;;;;;;3.78;2.00;;;;;;;;;;5059297;28;20400;-82
2023/08/10 02:24:42;;;;;;;2.50;2.00;;;;;;;;;;5058324;28;20135;-82
2023/08/10 02:27:08;;;;;;;1.98;1.70;;;;;;;;;;5058197;28;20044;-81
2023/08/10 02:29:33;;;;;;;2.38;1.50;;;;;;;;;;5061329;28;20037;-82
2023/08/10 02:32:00;;;;;;;1.80;1.48;;;;;;;;;;5057928;28;20044;-82
2023/08/10 02:34:26;;;;;;;1.88;1.48;;;;;;;;;;5058541;28;20047;-81
2023/08/10 02:36:51;;;;;;;2.15;1.48;;;;;;;;;;5055514;28;20045;-81
2023/08/10 02:39:17;;;;;;;2.20;1.50;;;;;;;;;;5063498;28;20040;-82
2023/08/10 02:41:42;;;;;;;4.32;1.42;;;;;;;;;;5058333;28;20047;-81
2023/08/10 02:44:09;;;;;;;1.58;1.33;;;;;;;;;;5059894;28;20031;-83
2023/08/10 02:46:34;;;;;;;5.05;1.70;;;;;;;;;;5050063;28;20123;-82
2023/08/10 02:49:00;;;;;;;2.58;1.77;;;;;;;;;;5056500;28;20032;-82
2023/08/10 02:51:26;;;;;;;2.42;1.85;;;;;;;;;;5059498;28;20048;-81
2023/08/10 02:53:52;;;;;;;1.80;1.30;;;;;;;;;;5059730;28;20492;-83
2023/08/10 02:56:18;;;;;;;1.83;1.30;;;;;;;;;;5064295;28;20033;-81
2023/08/10 02:58:43;;;;;;;2.05;1.30;;;;;;;;;;5059142;28;20044;-82
2023/08/10 03:01:09;;;;;;;2.15;1.25;;;;;;;;;;5056462;28;20037;-81
2023/08/10 03:03:37;;;;;;;3.42;1.40;;;;;;;;;;5070674;28;20657;-81
2023/08/10 03:06:02;;;;;;;1.33;1.20;;;;;;;;;;5056284;28;20032;-81
2023/08/10 03:08:28;;;;;;;5.50;1.30;;;;;;;;;;5054657;28;20086;-82
2023/08/10 03:10:54;;;;;;;1.63;1.30;;;;;;;;;;5063710;28;20043;-82
2023/08/10 03:13:22;;;;;;;4.15;1.33;;;;;;;;;;5056096;28;20067;-82
2023/08/10 03:15:49;;;;;;;2.25;1.40;;;;;;;;;;5054802;28;20123;-82
2023/08/10 03:18:16;;;;;;;1.90;1.10;;;;;;;;;;5054068;28;20062;-82
2023/08/10 03:20:42;;;;;;;1.27;1.15;;;;;;;;;;5054475;28;20025;-83
2023/08/10 03:23:07;;;;;;;1.45;1.02;;;;;;;;;;5054117;28;20108;-82
2023/08/10 03:25:34;;;;;;;1.80;1.10;;;;;;;;;;5059905;28;20086;-82
2023/08/10 03:27:59;;;;;;;1.70;1.17;;;;;;;;;;5055156;28;20496;-81
2023/08/10 03:30:25;;;;;;;1.55;1.27;;;;;;;;;;5054035;28;20036;-81
2023/08/10 03:32:51;;;;;;;3.58;1.20;;;;;;;;;;5054749;28;20156;-81
2023/08/10 03:35:16;;;;;;;2.05;1.20;;;;;;;;;;5062276;28;20535;-84
2023/08/10 03:37:42;;;;;;;1.75;1.35;;;;;;;;;;5054915;28;20055;-82
2023/08/10 03:40:08;;;;;;;2.80;1.50;;;;;;;;;;5056102;28;20562;-82
2023/08/10 03:42:34;;;;;;;2.58;1.30;;;;;;;;;;5067147;28;20032;-82
2023/08/10 03:45:00;;;;;;;1.70;1.50;;;;;;;;;;5056879;28;20045;-82
2023/08/10 03:47:25;;;;;;;6.63;2.03;;;;;;;;;;5057810;28;20037;-82
2023/08/10 03:49:51;;;;;;;2.88;1.80;;;;;;;;;;5065455;28;20043;-82
2023/08/10 03:52:16;;;;;;;3.20;2.00;;;;;;;;;;5057290;28;20036;-82
2023/08/10 03:54:42;;;;;;;2.40;1.73;;;;;;;;;;5058752;28;20043;-81
2023/08/10 03:57:08;;;;;;;1.95;1.70;;;;;;;;;;5056396;28;20108;-82
2023/08/10 03:59:35;;;;;;;2.47;1.83;;;;;;;;;;5060602;28;20028;-82
2023/08/10 04:02:00;;;;;;;5.05;1.90;;;;;;;;;;5065040;28;20040;-82
2023/08/10 04:04:26;;;;;;;2.38;1.50;;;;;;;;;;5062083;28;20029;-83
2023/08/10 04:06:52;;;;;;;3.17;1.70;;;;;;;;;;5063143;28;20024;-82
2023/08/10 04:09:18;;;;;;;3.45;2.30;;;;;;;;;;5069362;28;20522;-82
2023/08/10 04:11:44;;;;;;;3.25;2.10;;;;;;;;;;5060325;28;20512;-84
2023/08/10 04:14:09;;;;;;;5.00;2.22;;;;;;;;;;5068371;28;20064;-83
2023/08/10 04:16:35;;;;;;;3.00;2.20;;;;;;;;;;5056290;28;20044;-82
2023/08/10 04:19:00;;;;;;;3.75;1.90;;;;;;;;;;5056546;28;20044;-82
2023/08/10 04:21:26;;;;;;;4.22;2.60;;;;;;;;;;5057618;28;20082;-84
2023/08/10 04:23:51;;;;;;;3.70;2.47;;;;;;;;;;5062124;28;20033;-82
2023/08/10 04:26:17;;;;;;;3.17;2.22;;;;;;;;;;5062658;28;20086;-82
2023/08/10 04:28:43;;;;;;;3.22;1.70;;;;;;;;;;5064139;28;20063;-82
2023/08/10 04:31:08;;;;;;;6.35;2.17;;;;;;;;;;5065631;28;20033;-82
2023/08/10 04:33:34;;;;;;;3.75;2.00;;;;;;;;;;5065185;28;20104;-82
2023/08/10 04:36:02;;;;;;;2.47;1.80;;;;;;;;;;5060120;28;20053;-82
2023/08/10 04:38:28;;;;;;;3.30;1.90;;;;;;;;;;5062721;28;20044;-83
2023/08/10 04:40:54;;;;;;;2.22;1.60;;;;;;;;;;5061612;28;20033;-83
2023/08/10 04:43:19;;;;;;;3.65;1.80;;;;;;;;;;5060055;28;20043;-83
2023/08/10 04:45:44;;;;;;;3.15;1.90;;;;;;;;;;5057682;28;20061;-82
2023/08/10 04:48:11;;;;;;;1.92;1.60;;;;;;;;;;5056720;28;20033;-83
2023/08/10 04:50:36;;;;;;;2.28;1.52;;;;;;;;;;5056509;28;20420;-82
2023/08/10 04:53:02;;;;;;;2.53;1.70;;;;;;;;;;5055058;28;20037;-81
2023/08/10 04:55:28;;;;;;;2.58;1.50;;;;;;;;;;5058688;28;20049;-81
2023/08/10 04:57:53;;;;;;;1.80;1.40;;;;;;;;;;5052876;28;20087;-82
2023/08/10 05:00:19;;;;;;;2.33;1.63;;;;;;;;;;5055189;28;20095;-83
2023/08/10 05:02:45;;;;;;;3.25;1.45;;;;;;;;;;5055397;28;20037;-82
2023/08/10 05:05:11;;;;;;;3.05;1.50;;;;;;;;;;5058039;28;20060;-82
2023/08/10 05:07:37;;;;;;;3.75;1.48;;;;;;;;;;5053338;28;20043;-81
2023/08/10 05:10:05;;;;;;;3.97;2.38;;;;;;;;;;5056465;28;20183;-81
2023/08/10 05:12:38;;;;;;;6.60;3.53;;;;;;;;;;5053349;28;20083;-81
2023/08/10 05:15:05;;;;;;;5.43;3.13;;;;;;;;;;5034011;28;20091;-84
2023/08/10 05:17:30;;;;;;;4.15;2.63;;;;;;;;;;5058998;28;20043;-83
2023/08/10 05:19:56;;;;;;;3.08;1.98;;;;;;;;;;5055280;28;20463;-83
2023/08/10 05:22:21;;;;;;;3.80;2.00;;;;;;;;;;5059450;28;20035;-83
2023/08/10 05:24:47;;;;;;;3.20;2.03;;;;;;;;;;5058369;28;20091;-83
2023/08/10 05:27:12;;;;;;;3.72;1.90;;;;;;;;;;5056377;28;20096;-83
2023/08/10 05:29:38;;;;;;;2.30;1.63;;;;;;;;;;5060120;28;20090;-83
2023/08/10 05:32:04;;;;;;;2.80;1.95;;;;;;;;;;5058953;28;20123;-83
2023/08/10 05:34:29;;;;;;;4.63;1.77;;;;;;;;;;5057189;28;20036;-82
2023/08/10 05:36:55;;;;;;;3.22;1.80;;;;;;;;;;5063994;28;20041;-82
2023/08/10 05:39:20;;;;;;;3.45;1.85;;;;;;;;;;5058559;28;20040;-82
2023/08/10 05:41:46;;;;;;;3.80;1.65;;;;;;;;;;5058622;28;20047;-84
2023/08/10 05:44:14;;;;;;;3.50;1.65;;;;;;;;;;5057557;28;20057;-82
2023/08/10 05:46:40;;;;;;;3.13;1.70;;;;;;;;;;5058312;28;20032;-82
2023/08/10 05:49:05;;;;;;;2.97;1.73;;;;;;;;;;5062120;28;20095;-82
2023/08/10 05:51:31;;;;;;;2.22;1.63;;;;;;;;;;5061146;28;20156;-83
2023/08/10 05:53:56;;;;;;;3.40;1.85;;;;;;;;;;5062594;28;20048;-84
2023/08/10 05:56:21;;;;;;;3.47;1.80;;;;;;;;;;5062489;28;20504;-83
2023/08/10 05:58:47;;;;;;;3.70;1.70;;;;;;;;;;5062307;28;20515;-82
2023/08/10 06:01:13;;;;;;;2.25;1.67;;;;;;;;;;5061007;28;20039;-83
2023/08/10 06:03:39;;;;;;;2.42;1.90;;;;;;;;;;5061490;28;20047;-82
2023/08/10 06:06:06;;;;;;;4.45;2.60;;;;;;;;;;5059986;28;20041;-84
2023/08/10 06:08:33;;;;;;;3.00;1.42;;;;;;;;;;5059908;28;20082;-83
2023/08/10 06:11:00;;;;;;;3.50;1.67;;;;;;;;;;5060146;28;20036;-83
2023/08/10 06:13:26;;;;;;;3.38;1.60;;;;;;;;;;5067401;28;20067;-85
2023/08/10 06:15:51;;;;;;;2.80;1.50;;;;;;;;;;5079602;28;20033;-83
2023/08/10 06:18:17;;;;;;;2.25;1.50;;;;;;;;;;5062438;28;20044;-83
2023/08/10 06:20:44;;;;;;;3.25;1.60;;;;;;;;;;5060614;28;20033;-83
2023/08/10 06:23:11;;;;;;;1.90;1.42;;;;;;;;;;5076109;28;20029;-83
2023/08/10 06:25:36;;;;;;;2.10;1.40;;;;;;;;;;5060318;28;20083;-82
2023/08/10 06:28:02;;;;;;;3.53;1.80;;;;;;;;;;5060848;28;20036;-83
2023/08/10 06:30:28;;;;;;;1.50;1.38;;;;;;;;;;5060134;28;20059;-82
2023/08/10 06:32:53;;;;;;;3.22;1.40;;;;;;;;;;5064739;28;20040;-84
2023/08/10 06:35:19;;;;;;;4.35;1.60;;;;;;;;;;5061751;28;20039;-82
2023/08/10 06:37:45;;;;;;;4.90;1.60;;;;;;;;;;5057846;28;20032;-82
2023/08/10 06:40:15;;;;;;;2.08;1.50;;;;;;;;;;5061092;28;20048;-83
2023/08/10 06:42:42;;;;;;;2.25;1.58;;;;;;;;;;5060835;28;20040;-83
2023/08/10 06:45:14;;;;;;;3.63;1.60;;;;;;;;;;5062331;28;20043;-82
2023/08/10 06:47:40;;;;;;;2.60;1.70;;;;;;;;;;5061558;28;20041;-84
2023/08/10 06:50:08;;;;;;;4.28;1.67;;;;;;;;;;5062376;28;20033;-84
2023/08/10 06:52:34;;;;;;;2.55;1.83;;;;;;;;;;5062143;28;20459;-83
2023/08/10 06:54:59;;;;;;;5.93;1.90;;;;;;;;;;5060385;28;20045;-83
2023/08/10 06:57:25;;;;;;;3.10;1.98;;;;;;;;;;5061096;28;20050;-83
2023/08/10 06:59:50;;;;;;;3.63;1.90;;;;;;;;;;5061148;28;20419;-83
2023/08/10 07:02:19;;;;;;;2.92;1.83;;;;;;;;;;5059537;28;20040;-84
2023/08/10 07:04:45;;;;;;;2.47;2.00;;;;;;;;;;5061159;28;20535;-83
2023/08/10 07:07:12;;;;;;;4.00;2.10;;;;;;;;;;5060677;28;20064;-83
2023/08/10 07:09:37;;;;;;;2.60;1.90;;;;;;;;;;5060325;28;20037;-83
2023/08/10 07:12:04;;;;;;;2.33;1.80;;;;;;;;;;5060927;28;20523;-83
2023/08/10 07:14:29;;;;;;;2.85;2.15;;;;;;;;;;5058530;28;20056;-82
2023/08/10 07:16:55;;;;;;;2.67;1.90;;;;;;;;;;5060690;28;20041;-83
2023/08/10 07:19:20;;;;;;;2.80;1.85;;;;;;;;;;5043257;28;20040;-83
2023/08/10 07:21:46;;;;;;;3.72;2.10;;;;;;;;;;5058443;28;20046;-83
2023/08/10 07:24:12;;;;;;;6.57;1.80;;;;;;;;;;5061086;28;20037;-82
2023/08/10 07:26:37;;;;;;;2.60;1.80;;;;;;;;;;5060846;28;20096;-83
2023/08/10 07:29:03;;;;;;;2.50;1.70;;;;;;;;;;5058961;28;20071;-83
2023/08/10 07:31:31;;;;;;;5.35;1.95;;;;;;;;;;5059916;28;20041;-84
2023/08/10 07:33:59;;;;;;;2.50;1.73;;;;;;;;;;5060655;28;20513;-84
2023/08/10 07:36:26;;;;;;;2.42;1.90;;;;;;;;;;5057844;28;20055;-83
2023/08/10 07:38:52;;;;;;;5.55;2.20;;;;;;;;;;5062242;28;20039;-83
2023/08/10 07:41:17;;;;;;;3.17;2.00;;;;;;;;;;5059206;28;20033;-82
2023/08/10 07:43:43;;;;;;;2.00;1.60;;;;;;;;;;5061022;28;20044;-82
2023/08/10 07:46:08;;;;;;;2.05;1.70;;;;;;;;;;5059866;28;20091;-83
2023/08/10 07:48:34;;;;;;;2.65;1.80;;;;;;;;;;5060832;28;20064;-83
2023/08/10 07:51:00;;;;;;;2.47;1.70;;;;;;;;;;5065803;28;20041;-83
2023/08/10 07:53:28;;;;;;;2.78;1.73;;;;;;;;;;5059984;28;20041;-84
2023/08/10 07:55:54;;;;;;;3.60;2.13;;;;;;;;;;5058599;28;20056;-84
2023/08/10 07:58:20;;;;;;;2.53;1.70;;;;;;;;;;5058693;28;20032;-82
2023/08/10 08:00:46;;;;;;;2.25;1.90;;;;;;;;;;5060376;28;20104;-84
2023/08/10 08:03:12;;;;;;;4.07;1.70;;;;;;;;;;5059422;28;20055;-82
2023/08/10 08:05:38;;;;;;;2.88;1.60;;;;;;;;;;5060560;28;20052;-84
2023/08/10 08:08:07;;;;;;;3.53;1.75;;;;;;;;;;5060292;28;20061;-84
2023/08/10 08:10:36;;;;;;;3.25;1.80;;;;;;;;;;5052286;28;20040;-83
2023/08/10 08:13:06;;;;;;;2.75;1.70;;;;;;;;;;5059794;28;20036;-83
2023/08/10 08:15:35;;;;;;;2.28;1.60;;;;;;;;;;5055737;28;20057;-83
2023/08/10 08:18:38;;;;;;;2.10;1.63;;;;;;;;;;5061095;28;20051;-84
2023/08/10 08:21:09;;;;;;;3.28;1.77;;;;;;;;;;5059883;28;20043;-83
2023/08/10 08:23:34;;;;;;;3.40;2.03;;;;;;;;;;5059360;28;20113;-84
2023/08/10 08:26:00;;;;;;;5.15;2.00;;;;;;;;;;5061360;28;20052;-83
2023/08/10 08:28:26;;;;;;;2.60;2.00;;;;;;;;;;5062509;28;20035;-83
2023/08/10 08:30:52;;;;;;;3.10;1.92;;;;;;;;;;5043557;28;20068;-82
2023/08/10 08:33:18;;;;;;;2.28;1.95;;;;;;;;;;5061528;28;20097;-83
2023/08/10 08:35:46;;;;;;;2.40;1.60;;;;;;;;;;5066316;28;20037;-84
2023/08/10 08:38:15;;;;;;;4.65;1.90;;;;;;;;;;5063311;28;20055;-84
2023/08/10 08:40:41;;;;;;;2.53;1.75;;;;;;;;;;5067084;28;20249;-84
2023/08/10 08:43:07;;;;;;;2.33;1.60;;;;;;;;;;5065929;28;20049;-83
2023/08/10 08:45:33;;;;;;;2.83;1.67;;;;;;;;;;5067390;28;20064;-84
2023/08/10 08:47:59;;;;;;;3.65;1.70;;;;;;;;;;5065943;28;20033;-83
2023/08/10 08:50:27;;;;;;;2.70;2.17;;;;;;;;;;5063256;28;20056;-84
2023/08/10 08:52:53;;;;;;;2.22;1.75;;;;;;;;;;5064257;28;20100;-84
2023/08/10 08:55:20;;;;;;;2.83;2.00;;;;;;;;;;5062450;28;20072;-83
2023/08/10 08:57:47;;;;;;;3.60;1.90;;;;;;;;;;5077557;28;20041;-84
2023/08/10 09:00:13;;;;;;;2.85;1.88;;;;;;;;;;5064645;28;20174;-84
2023/08/10 09:02:39;;;;;;;3.13;1.88;;;;;;;;;;5062643;28;20572;-84
2023/08/10 09:05:05;;;;;;;3.08;1.80;;;;;;;;;;5066183;28;20033;-85
2023/08/10 09:07:30;;;;;;;2.67;1.77;;;;;;;;;;5063615;28;20400;-83
2023/08/10 09:09:56;;;;;;;2.10;1.70;;;;;;;;;;5043471;28;20029;-83
2023/08/10 09:12:31;;;;;;;2.78;1.73;;;;;;;;;;5061050;28;20044;-83
2023/08/10 09:15:18;;;;;;;2.80;1.90;;;;;;;;;;5078956;28;20073;-84
2023/08/10 09:17:45;;;;;;;2.88;2.05;;;;;;;;;;5064420;28;20063;-83
2023/08/10 09:20:17;;;;;;;2.45;1.85;;;;;;;;;;5065788;28;20037;-83
2023/08/10 09:22:43;;;;;;;2.27;1.90;;;;;;;;;;5067122;28;20032;-83
2023/08/10 09:25:08;;;;;;;2.78;2.10;;;;;;;;;;5065964;28;20048;-84
2023/08/10 09:27:34;;;;;;;3.30;1.92;;;;;;;;;;5066552;28;20125;-84
2023/08/10 09:30:05;;;;;;;2.67;1.90;;;;;;;;;;5068889;28;20063;-83
2023/08/10 09:32:31;;;;;;;2.92;1.90;;;;;;;;;;5049573;28;20032;-83
2023/08/10 09:34:57;;;;;;;2.28;1.67;;;;;;;;;;5067873;28;20094;-84
2023/08/10 09:37:24;;;;;;;1.90;1.70;;;;;;;;;;5068333;28;20037;-85
2023/08/10 09:39:55;;;;;;;2.25;1.60;;;;;;;;;;5068070;28;20409;-83
2023/08/10 09:42:20;;;;;;;2.35;1.55;;;;;;;;;;5064899;28;20087;-84
2023/08/10 09:44:48;;;;;;;4.72;1.80;;;;;;;;;;5063226;28;20488;-83
2023/08/10 09:47:15;;;;;;;2.38;1.70;;;;;;;;;;5063344;28;20025;-83
2023/08/10 09:50:05;;;;;;;3.42;1.70;;;;;;;;;;5063702;28;20082;-85
2023/08/10 09:52:32;;;;;;;3.13;1.63;;;;;;;;;;5062535;28;20037;-83
2023/08/10 09:54:58;;;;;;;2.50;1.60;;;;;;;;;;5045973;28;20037;-84
2023/08/10 09:57:25;;;;;;;3.72;1.60;;;;;;;;;;5066063;28;20056;-84
2023/08/10 09:59:51;;;;;;;3.72;1.60;;;;;;;;;;5067244;28;20045;-83
2023/08/10 10:02:18;;;;;;;2.80;1.98;;;;;;;;;;5065256;28;20040;-83
2023/08/10 10:04:45;;;;;;;2.97;1.70;;;;;;;;;;5066477;28;20041;-84
2023/08/10 10:07:11;;;;;;;5.35;1.60;;;;;;;;;;5050143;28;20049;-84
2023/08/10 10:09:39;;;;;;;2.95;1.95;;;;;;;;;;5067410;28;20136;-83
2023/08/10 10:12:13;;;;;;;1.92;1.50;;;;;;;;;;5063040;28;20044;-83
2023/08/10 10:14:44;;;;;;;2.20;1.60;;;;;;;;;;5063148;28;20056;-83
2023/08/10 10:17:12;;;;;;;1.88;1.60;;;;;;;;;;5063342;28;20041;-84
2023/08/10 10:19:41;;;;;;;2.53;1.73;;;;;;;;;;5063580;28;20063;-84
2023/08/10 10:22:07;;;;;;;3.60;1.65;;;;;;;;;;5063048;28;20029;-83
2023/08/10 10:24:33;;;;;;;5.53;1.70;;;;;;;;;;5063625;28;20055;-83
2023/08/10 10:27:08;;;;;;;5.65;1.60;;;;;;;;;;5062378;28;20037;-83
2023/08/10 10:29:51;;;;;;;2.10;1.50;;;;;;;;;;5063373;28;20033;-83
2023/08/10 10:32:19;;;;;;;3.53;1.60;;;;;;;;;;5062793;28;20125;-83
2023/08/10 10:34:46;;;;;;;2.75;1.50;;;;;;;;;;5066251;28;20049;-83
2023/08/10 10:37:29;;;;;;;2.13;1.60;;;;;;;;;;5063773;28;20092;-84
2023/08/10 10:40:18;;;;;;;3.45;1.70;;;;;;;;;;5063876;28;20097;-83
2023/08/10 10:43:14;;;;;;;2.08;1.42;;;;;;;;;;5062132;28;20041;-83
2023/08/10 10:45:43;;;;;;;3.17;1.70;;;;;;;;;;5058171;28;20048;-82
2023/08/10 10:48:13;;;;;;;1.70;1.45;;;;;;;;;;5061329;28;20029;-82
2023/08/10 10:50:39;;;;;;;2.45;1.50;;;;;;;;;;5062263;28;20056;-83
2023/08/10 10:53:15;;;;;;;2.28;1.73;;;;;;;;;;5063525;28;20052;-83
2023/08/10 10:55:43;;;;;;;4.18;1.50;;;;;;;;;;5063817;28;20104;-83
2023/08/10 10:58:11;;;;;;;2.63;1.42;;;;;;;;;;5062258;28;20482;-84
2023/08/10 11:00:37;;;;;;;2.95;1.58;;;;;;;;;;5062188;28;20033;-83
2023/08/10 11:03:04;;;;;;;2.28;1.60;;;;;;;;;;5063616;28;20029;-83
2023/08/10 11:05:29;;;;;;;2.15;1.50;;;;;;;;;;5061601;28;20040;-82
2023/08/10 11:07:55;;;;;;;2.78;1.50;;;;;;;;;;5061041;28;20037;-84
2023/08/10 11:10:21;;;;;;;2.47;1.50;;;;;;;;;;5061131;28;20519;-83
2023/08/10 11:12:48;;;;;;;3.53;1.63;;;;;;;;;;5061889;28;20044;-84
2023/08/10 11:15:15;;;;;;;3.47;1.50;;;;;;;;;;5061486;28;20036;-83
2023/08/10 11:17:42;;;;;;;5.72;1.70;;;;;;;;;;5044244;28;20037;-84
2023/08/10 11:20:14;;;;;;;4.65;1.40;;;;;;;;;;5062459;28;20033;-83
2023/08/10 11:22:44;;;;;;;1.63;1.48;;;;;;;;;;5066407;28;20045;-83
2023/08/10 11:25:13;;;;;;;3.13;1.33;;;;;;;;;;5062018;28;20104;-83
2023/08/10 11:27:45;;;;;;;2.97;1.55;;;;;;;;;;5063176;28;20028;-83
2023/08/10 11:30:16;;;;;;;1.67;1.40;;;;;;;;;;5062232;28;20029;-84
2023/08/10 11:32:45;;;;;;;3.97;1.60;;;;;;;;;;5062641;28;20028;-84
2023/08/10 11:35:13;;;;;;;2.30;1.30;;;;;;;;;;5071606;28;20028;-83
2023/08/10 11:37:41;;;;;;;3.10;1.55;;;;;;;;;;5063294;28;20029;-83
2023/08/10 11:40:18;;;;;;;4.57;1.60;;;;;;;;;;5062451;28;20128;-83
2023/08/10 11:43:03;;;;;;;3.50;1.58;;;;;;;;;;5061601;28;20059;-83
2023/08/10 11:45:29;;;;;;;1.77;1.50;;;;;;;;;;5061231;28;20048;-83
2023/08/10 11:47:57;;;;;;;1.85;1.40;;;;;;;;;;5061701;28;20028;-85
2023/08/10 11:50:25;;;;;;;3.80;1.88;;;;;;;;;;5063852;28;20024;-84
2023/08/10 11:52:55;;;;;;;1.80;1.40;;;;;;;;;;5058133;28;20024;-83
2023/08/10 11:55:21;;;;;;;2.72;1.50;;;;;;;;;;5062591;28;20064;-85
2023/08/10 11:57:51;;;;;;;3.05;1.33;;;;;;;;;;5065744;28;20040;-87
2023/08/10 12:00:33;;;;;;;3.17;1.70;;;;;;;;;;5066605;28;20072;-85
2023/08/10 12:03:07;;;;;;;3.05;1.50;;;;;;;;;;5065329;28;20037;-85
2023/08/10 12:05:42;;;;;;;2.60;1.50;;;;;;;;;;5061091;28;20055;-86
2023/08/10 12:08:29;;;;;;;2.47;1.50;;;;;;;;;;5059233;28;20485;-85
2023/08/10 12:11:04;;;;;;;4.38;1.30;;;;;;;;;;5055804;28;20040;-85
2023/08/10 12:13:30;;;;;;;2.22;1.50;;;;;;;;;;5056333;28;20078;-85
2023/08/10 12:15:58;;;;;;;2.97;1.40;;;;;;;;;;5057634;28;20075;-85
2023/08/10 12:18:24;;;;;;;2.08;1.55;;;;;;;;;;5057692;28;20087;-87
2023/08/10 12:20:52;;;;;;;3.50;1.45;;;;;;;;;;5062963;28;20496;-85
2023/08/10 12:23:19;;;;;;;2.33;1.40;;;;;;;;;;5063622;28;20059;-85
2023/08/10 12:25:46;;;;;;;2.25;1.33;;;;;;;;;;5061604;28;20040;-85
2023/08/10 12:28:12;;;;;;;7.15;1.67;;;;;;;;;;5064449;28;20032;-85
2023/08/10 12:30:38;;;;;;;2.70;1.63;;;;;;;;;;5065703;28;20040;-84
2023/08/10 12:33:06;;;;;;;2.00;1.50;;;;;;;;;;5061704;28;20053;-85
2023/08/10 12:35:32;;;;;;;2.35;1.50;;;;;;;;;;5060542;28;20112;-86
2023/08/10 12:37:59;;;;;;;2.80;1.60;;;;;;;;;;5073933;28;20060;-86
2023/08/10 12:40:24;;;;;;;2.35;1.60;;;;;;;;;;5058832;28;20047;-85
2023/08/10 12:42:50;;;;;;;2.28;1.67;;;;;;;;;;5061882;28;20128;-85
2023/08/10 12:45:17;;;;;;;3.58;1.60;;;;;;;;;;5064468;28;20044;-85
2023/08/10 12:47:43;;;;;;;1.80;1.40;;;;;;;;;;5062370;28;20143;-85
2023/08/10 12:50:11;;;;;;;2.20;1.50;;;;;;;;;;5062904;28;20041;-85
2023/08/10 12:52:37;;;;;;;2.10;1.50;;;;;;;;;;5054489;28;20037;-84
2023/08/10 12:55:04;;;;;;;2.05;1.50;;;;;;;;;;5058463;28;20051;-85
2023/08/10 12:57:29;;;;;;;3.42;1.50;;;;;;;;;;5059083;28;20063;-84
2023/08/10 13:00:01;;;;;;;2.67;1.52;;;;;;;;;;5062314;28;20028;-84
2023/08/10 13:02:27;;;;;;;4.32;1.50;;;;;;;;;;5058198;28;20037;-84
2023/08/10 13:04:53;;;;;;;3.20;1.38;;;;;;;;;;5057123;28;20024;-84
2023/08/10 13:07:19;;;;;;;3.20;1.60;;;;;;;;;;5058738;28;20071;-84
2023/08/10 13:09:45;;;;;;;2.88;1.60;;;;;;;;;;5063588;28;20033;-84
2023/08/10 13:12:10;;;;;;;2.83;1.63;;;;;;;;;;5050917;28;20488;-85
2023/08/10 13:14:38;;;;;;;2.25;1.60;;;;;;;;;;5057019;28;20166;-84
2023/08/10 13:17:04;;;;;;;1.95;1.40;;;;;;;;;;5054911;28;20520;-84
2023/08/10 13:19:29;;;;;;;3.58;1.60;;;;;;;;;;5057547;28;20045;-83
2023/08/10 13:21:55;;;;;;;5.78;1.58;;;;;;;;;;5060083;28;20052;-83
2023/08/10 13:24:20;;;;;;;3.33;1.77;;;;;;;;;;5056744;28;20040;-85
2023/08/10 13:26:46;;;;;;;3.08;1.70;;;;;;;;;;5060096;28;20114;-84
2023/08/10 13:29:11;;;;;;;2.35;1.60;;;;;;;;;;5059338;28;20036;-84
2023/08/10 13:31:39;;;;;;;3.40;2.03;;;;;;;;;;5060999;28;20405;-85
2023/08/10 13:34:05;;;;;;;3.13;1.58;;;;;;;;;;5054936;28;20041;-85
2023/08/10 13:36:32;;;;;;;2.22;1.50;;;;;;;;;;5060412;28;20033;-85
2023/08/10 13:38:58;;;;;;;2.47;1.70;;;;;;;;;;5058239;28;20055;-84
2023/08/10 13:41:24;;;;;;;2.10;1.45;;;;;;;;;;5062152;28;20034;-84
2023/08/10 13:43:49;;;;;;;3.08;2.03;;;;;;;;;;5060519;28;20086;-84
2023/08/10 13:46:15;;;;;;;2.28;1.60;;;;;;;;;;5050570;28;20469;-85
2023/08/10 13:48:40;;;;;;;3.42;1.55;;;;;;;;;;5058620;28;20048;-82
2023/08/10 13:51:06;;;;;;;4.13;1.70;;;;;;;;;;5058689;28;20041;-85
2023/08/10 13:53:31;;;;;;;2.67;1.63;;;;;;;;;;5058030;28;20040;-85
2023/08/10 13:55:57;;;;;;;3.65;1.50;;;;;;;;;;5054911;28;20033;-84
2023/08/10 13:58:22;;;;;;;2.17;1.58;;;;;;;;;;5054881;28;20029;-85
2023/08/10 14:00:48;;;;;;;2.63;1.63;;;;;;;;;;5052775;28;20041;-85
2023/08/10 14:03:13;;;;;;;1.80;1.52;;;;;;;;;;5054505;28;20029;-85
2023/08/10 14:05:39;;;;;;;2.15;1.55;;;;;;;;;;5056318;28;20460;-85
2023/08/10 14:08:05;;;;;;;2.20;1.50;;;;;;;;;;5054041;28;20115;-85
2023/08/10 14:10:30;;;;;;;2.50;1.75;;;;;;;;;;5057346;28;20052;-84
2023/08/10 14:12:57;;;;;;;2.95;1.70;;;;;;;;;;5056916;28;20033;-85
2023/08/10 14:15:23;;;;;;;1.92;1.35;;;;;;;;;;5060165;28;20045;-85
2023/08/10 14:17:48;;;;;;;2.67;1.77;;;;;;;;;;5055264;28;20037;-85
2023/08/10 14:20:13;;;;;;;2.30;1.60;;;;;;;;;;5055521;28;20111;-85
2023/08/10 14:22:39;;;;;;;2.08;1.70;;;;;;;;;;5063026;28;20402;-84
2023/08/10 14:25:05;;;;;;;2.42;1.52;;;;;;;;;;5057961;28;20040;-85
2023/08/10 14:27:30;;;;;;;3.05;1.50;;;;;;;;;;5056179;28;20095;-83
2023/08/10 14:29:57;;;;;;;2.13;1.30;;;;;;;;;;5063538;28;20155;-82
2023/08/10 14:32:23;;;;;;;2.17;1.40;;;;;;;;;;5061299;28;20044;-82
2023/08/10 14:34:50;;;;;;;1.83;1.58;;;;;;;;;;5062395;28;20032;-82
2023/08/10 14:37:15;;;;;;;2.78;1.65;;;;;;;;;;5061609;28;20130;-81
2023/08/10 14:39:41;;;;;;;3.47;1.60;;;;;;;;;;5061651;28;20032;-80
2023/08/10 14:42:06;;;;;;;15.88;1.88;;;;;;;;;;5062531;28;20059;-82
2023/08/10 14:44:32;;;;;;;4.43;1.60;;;;;;;;;;5060942;28;20059;-82